Time;durP1;ratioP1;P1;durP2;ratioP2;P2;SDS_P1;SDS_P2;PMS_P1;PMS_P2;Temp;Humidity;BMP_temperature;BMP_pressure;BME280_temperature;BME280_humidity;BME280_pressure;Samples;Min_cycle;Max_cycle;Signal;HPM_P1;HPM_P2
2022/04/06 00:00:21;;;;;;;13.27;6.10;;;8.50;99.90;;;;;;5111374;28;20050;-66
2022/04/06 00:02:47;;;;;;;12.45;5.95;;;8.50;99.90;;;;;;5093506;28;20054;-63
2022/04/06 00:05:13;;;;;;;15.50;7.03;;;8.50;99.90;;;;;;5093296;28;20374;-63
2022/04/06 00:07:40;;;;;;;21.10;7.22;;;8.50;99.90;;;;;;5111501;28;20063;-63
2022/04/06 00:10:08;;;;;;;18.75;6.43;;;8.50;99.90;;;;;;5111206;28;20051;-65
2022/04/06 00:12:38;;;;;;;18.77;7.97;;;8.50;99.90;;;;;;5093446;28;20150;-63
2022/04/06 00:15:07;;;;;;;18.13;7.45;;;8.50;99.90;;;;;;5111447;28;20043;-64
2022/04/06 00:17:33;;;;;;;20.58;8.13;;;8.50;99.90;;;;;;5093484;28;20036;-64
2022/04/06 00:19:58;;;;;;;19.20;7.63;;;8.50;99.90;;;;;;5076764;28;20094;-63
2022/04/06 00:22:24;;;;;;;20.50;8.05;;;8.50;99.90;;;;;;5092854;28;20083;-64
2022/04/06 00:24:51;;;;;;;18.60;8.07;;;8.50;99.90;;;;;;5111247;28;20124;-63
2022/04/06 00:27:17;;;;;;;18.58;8.55;;;8.50;99.90;;;;;;5110971;28;20135;-64
2022/04/06 00:29:43;;;;;;;23.38;8.80;;;8.50;99.90;;;;;;5111504;28;20417;-65
2022/04/06 00:32:10;;;;;;;20.35;8.50;;;8.50;99.90;;;;;;5092811;28;20039;-63
2022/04/06 00:37:20;;;;;;;19.45;9.75;;;8.50;99.90;;;;;;5111072;28;20055;-65
2022/04/06 00:39:46;;;;;;;22.08;8.88;;;8.50;99.90;;;;;;5076567;28;20047;-63
2022/04/06 00:42:11;;;;;;;21.35;8.85;;;8.50;99.90;;;;;;5110582;28;20389;-65
2022/04/06 00:44:38;;;;;;;23.02;10.10;;;8.50;99.90;;;;;;5111014;28;20040;-64
2022/04/06 00:47:05;;;;;;;25.35;9.00;;;8.50;99.90;;;;;;5092999;28;20055;-72
2022/04/06 00:49:32;;;;;;;19.20;9.40;;;8.50;99.90;;;;;;5093106;28;20079;-63
2022/04/06 00:52:00;;;;;;;18.17;9.45;;;8.50;99.90;;;;;;5111305;28;20043;-64
2022/04/06 00:54:29;;;;;;;26.42;11.35;;;8.50;99.90;;;;;;5110710;28;20111;-64
2022/04/06 00:56:58;;;;;;;23.98;10.57;;;8.50;99.90;;;;;;5111175;28;20079;-63
2022/04/06 00:59:27;;;;;;;23.88;10.45;;;8.50;99.90;;;;;;5110722;28;20054;-63
2022/04/06 01:01:53;;;;;;;27.60;11.50;;;8.50;99.90;;;;;;5092801;28;20130;-66
2022/04/06 01:04:19;;;;;;;31.05;11.32;;;8.50;99.90;;;;;;5075576;28;20392;-63
2022/04/06 01:06:48;;;;;;;24.67;10.65;;;8.50;99.90;;;;;;5113210;28;20043;-64
2022/04/06 01:09:15;;;;;;;25.38;11.38;;;8.50;99.90;;;;;;5114225;28;20040;-64
2022/04/06 01:11:46;;;;;;;28.33;11.35;;;8.50;99.90;;;;;;5079935;28;20405;-64
2022/04/06 01:14:13;;;;;;;30.75;11.82;;;8.50;99.90;;;;;;5114227;28;20054;-63
2022/04/06 01:16:40;;;;;;;24.20;12.02;;;8.60;99.90;;;;;;5114447;28;20058;-64
2022/04/06 01:19:06;;;;;;;29.63;11.55;;;8.50;99.90;;;;;;5096678;28;20071;-64
2022/04/06 01:21:32;;;;;;;29.35;12.25;;;8.60;99.90;;;;;;5114146;28;20066;-64
2022/04/06 01:23:58;;;;;;;31.23;11.70;;;8.50;99.90;;;;;;5079597;28;20043;-64
2022/04/06 01:26:24;;;;;;;24.67;11.18;;;8.50;99.90;;;;;;5095431;28;20386;-62
2022/04/06 01:28:50;;;;;;;27.48;10.85;;;8.50;99.90;;;;;;5114481;28;20385;-63
2022/04/06 01:31:17;;;;;;;19.15;9.82;;;8.50;99.90;;;;;;5113942;28;20169;-63
2022/04/06 01:33:43;;;;;;;24.75;9.90;;;8.50;99.90;;;;;;5114205;28;20039;-63
2022/04/06 01:36:09;;;;;;;21.73;10.50;;;8.50;99.90;;;;;;5096011;28;20520;-63
2022/04/06 01:38:35;;;;;;;27.17;9.18;;;8.50;99.90;;;;;;5095514;28;20135;-63
2022/04/06 01:41:01;;;;;;;22.10;9.75;;;8.50;99.90;;;;;;5114159;28;20071;-63
2022/04/06 01:43:27;;;;;;;23.48;9.88;;;8.50;99.90;;;;;;5113655;28;20071;-63
2022/04/06 01:45:53;;;;;;;21.95;8.65;;;8.60;99.90;;;;;;5079066;28;20071;-64
2022/04/06 01:48:19;;;;;;;21.70;9.65;;;8.60;99.90;;;;;;5095332;28;20075;-63
2022/04/06 01:53:30;;;;;;;21.20;8.63;;;8.50;99.90;;;;;;5113511;28;20048;-63
2022/04/06 01:55:57;;;;;;;19.20;9.23;;;8.60;99.90;;;;;;5114296;28;20104;-63
2022/04/06 01:58:23;;;;;;;23.27;8.90;;;8.50;99.90;;;;;;5113613;28;20047;-64
2022/04/06 02:00:49;;;;;;;21.13;9.10;;;8.50;99.90;;;;;;5078856;28;20047;-65
2022/04/06 02:03:16;;;;;;;22.67;9.35;;;8.50;99.90;;;;;;5095603;28;20165;-75
2022/04/06 02:05:41;;;;;;;22.40;8.93;;;8.60;99.90;;;;;;5113501;28;20051;-65
2022/04/06 02:08:07;;;;;;;19.00;8.70;;;8.50;99.90;;;;;;5078827;28;20089;-65
2022/04/06 02:10:33;;;;;;;23.38;8.70;;;8.60;99.90;;;;;;5113077;28;20047;-62
2022/04/06 02:12:59;;;;;;;22.00;8.10;;;8.50;99.90;;;;;;5113474;28;20409;-65
2022/04/06 02:15:27;;;;;;;19.48;7.65;;;8.60;99.90;;;;;;5113033;28;20073;-64
2022/04/06 02:17:53;;;;;;;18.70;7.88;;;8.50;99.90;;;;;;5095411;28;20112;-63
2022/04/06 02:20:19;;;;;;;19.67;7.72;;;8.50;99.90;;;;;;5113037;28;20047;-71
2022/04/06 02:22:45;;;;;;;18.77;7.13;;;8.60;99.90;;;;;;5113347;28;20047;-64
2022/04/06 02:25:14;;;;;;;19.20;7.55;;;8.60;99.90;;;;;;5091721;28;20143;-64
2022/04/06 02:27:51;;;;;;;14.77;6.80;;;8.50;99.90;;;;;;5092472;28;20067;-65
2022/04/06 02:30:18;;;;;;;19.17;7.57;;;8.60;99.90;;;;;;5091650;28;20044;-70
2022/04/06 02:32:46;;;;;;;18.05;6.25;;;8.60;99.90;;;;;;5091538;28;20048;-62
2022/04/06 02:35:12;;;;;;;16.90;7.70;;;8.60;99.90;;;;;;5092518;28;20127;-62
2022/04/06 02:37:41;;;;;;;16.27;7.10;;;8.50;99.90;;;;;;5092342;28;20058;-63
2022/04/06 02:40:09;;;;;;;14.40;6.50;;;8.60;99.90;;;;;;5091451;28;20048;-64
2022/04/06 02:42:34;;;;;;;24.45;7.25;;;8.60;99.90;;;;;;5091830;28;20044;-65
2022/04/06 02:45:00;;;;;;;24.00;6.40;;;8.60;99.90;;;;;;5091290;28;20056;-63
2022/04/06 02:47:26;;;;;;;19.20;6.85;;;8.60;99.90;;;;;;5091816;28;20133;-63
2022/04/06 02:49:52;;;;;;;17.63;6.18;;;8.50;99.90;;;;;;5091346;28;20047;-62
2022/04/06 02:52:17;;;;;;;13.00;5.60;;;8.50;99.90;;;;;;5091258;28;20048;-62
2022/04/06 02:54:43;;;;;;;15.35;6.20;;;8.50;99.90;;;;;;5091819;28;20032;-62
2022/04/06 02:57:09;;;;;;;14.63;5.90;;;8.50;99.90;;;;;;5092310;28;20047;-64
2022/04/06 02:59:35;;;;;;;17.00;5.70;;;8.50;99.90;;;;;;5091592;28;20485;-68
2022/04/06 03:02:00;;;;;;;12.75;5.47;;;8.50;99.90;;;;;;5090924;28;20136;-64
2022/04/06 03:04:27;;;;;;;14.32;4.97;;;8.50;99.90;;;;;;5057361;28;20044;-64
2022/04/06 03:06:52;;;;;;;10.57;5.00;;;8.50;99.90;;;;;;5057634;28;20503;-65
2022/04/06 03:09:18;;;;;;;15.80;4.78;;;8.50;99.90;;;;;;5091049;28;20123;-64
2022/04/06 03:11:43;;;;;;;12.23;4.50;;;8.50;99.90;;;;;;5091758;28;20097;-64
2022/04/06 03:14:09;;;;;;;12.20;4.15;;;8.50;99.90;;;;;;5090704;28;20051;-63
2022/04/06 03:16:35;;;;;;;12.18;4.60;;;8.50;99.90;;;;;;5090335;28;20051;-63
2022/04/06 03:19:01;;;;;;;10.38;4.18;;;8.50;99.90;;;;;;5090828;28;20048;-64
2022/04/06 03:21:27;;;;;;;15.10;4.75;;;8.60;99.90;;;;;;5091495;28;20048;-65
2022/04/06 03:23:53;;;;;;;6.53;3.50;;;8.50;99.90;;;;;;5090679;28;20036;-64
2022/04/06 03:26:18;;;;;;;8.25;4.05;;;8.50;99.90;;;;;;5073516;28;20519;-62
2022/04/06 03:28:44;;;;;;;7.45;3.03;;;8.50;99.90;;;;;;5089584;28;20220;-63
2022/04/06 03:31:10;;;;;;;9.40;3.38;;;8.50;99.90;;;;;;5092053;28;20251;-65
2022/04/06 03:33:36;;;;;;;8.10;2.90;;;8.50;99.90;;;;;;5091258;28;20103;-64
2022/04/06 03:36:02;;;;;;;9.13;3.40;;;8.50;99.90;;;;;;5073856;28;20040;-63
2022/04/06 03:38:28;;;;;;;8.15;3.25;;;8.50;99.90;;;;;;5090091;28;20400;-69
2022/04/06 03:40:54;;;;;;;10.95;3.17;;;8.50;99.90;;;;;;5091403;28;20051;-64
2022/04/06 03:43:20;;;;;;;6.85;2.88;;;8.50;99.90;;;;;;5090368;28;20493;-63
2022/04/06 03:45:45;;;;;;;9.10;3.45;;;8.50;99.90;;;;;;5073334;28;20140;-63
2022/04/06 03:48:11;;;;;;;9.50;2.75;;;8.50;99.90;;;;;;5073763;28;20507;-63
2022/04/06 03:50:38;;;;;;;11.02;2.78;;;8.50;99.90;;;;;;5073191;28;20073;-64
2022/04/06 03:53:03;;;;;;;10.07;3.35;;;8.60;99.90;;;;;;5073668;28;20439;-63
2022/04/06 03:55:29;;;;;;;11.00;3.50;;;8.50;99.90;;;;;;5091257;28;20051;-75
2022/04/06 03:57:55;;;;;;;8.25;3.53;;;8.50;99.90;;;;;;5091477;28;20529;-63
2022/04/06 04:00:20;;;;;;;8.77;3.70;;;8.50;99.90;;;;;;5090262;28;20101;-64
2022/04/06 04:02:46;;;;;;;9.65;3.47;;;8.50;99.90;;;;;;5091016;28;20063;-65
2022/04/06 04:05:12;;;;;;;10.45;3.83;;;8.50;99.90;;;;;;5090155;28;20433;-66
2022/04/06 04:07:39;;;;;;;8.93;3.67;;;8.50;99.90;;;;;;5091038;28;20063;-63
2022/04/06 04:10:07;;;;;;;9.98;3.63;;;8.40;99.90;;;;;;5090114;28;20054;-64
2022/04/06 04:12:34;;;;;;;14.05;4.00;;;8.40;99.90;;;;;;5089787;28;20116;-63
2022/04/06 04:15:01;;;;;;;14.93;4.68;;;8.50;99.90;;;;;;5091195;28;20146;-63
2022/04/06 04:17:26;;;;;;;14.07;4.78;;;8.40;99.90;;;;;;5090096;28;20132;-64
2022/04/06 04:19:52;;;;;;;11.48;5.03;;;8.40;99.90;;;;;;5089612;28;20127;-68
2022/04/06 04:22:18;;;;;;;20.25;5.32;;;8.40;99.90;;;;;;5091289;28;20047;-63
2022/04/06 04:24:43;;;;;;;14.13;5.28;;;8.40;99.90;;;;;;5090748;28;20149;-64
2022/04/06 04:27:09;;;;;;;13.07;5.03;;;8.30;99.90;;;;;;5111658;28;20055;-65
2022/04/06 04:29:35;;;;;;;16.98;5.15;;;8.30;99.90;;;;;;5093171;28;20108;-67
2022/04/06 04:32:00;;;;;;;11.20;5.10;;;8.30;99.90;;;;;;5093559;28;20052;-63
2022/04/06 04:34:26;;;;;;;18.90;5.50;;;8.30;99.90;;;;;;5093297;28;20036;-63
2022/04/06 04:36:53;;;;;;;13.30;5.80;;;8.30;99.90;;;;;;5111018;28;20066;-63
2022/04/06 04:39:18;;;;;;;19.23;6.70;;;8.30;99.90;;;;;;5111074;28;20051;-63
2022/04/06 04:41:45;;;;;;;16.15;5.82;;;8.30;99.90;;;;;;5113324;28;20050;-63
2022/04/06 04:44:11;;;;;;;17.65;6.90;;;8.30;99.90;;;;;;5115185;28;20123;-63
2022/04/06 04:46:37;;;;;;;15.88;6.22;;;8.30;99.90;;;;;;5114826;28;20054;-66
2022/04/06 04:49:03;;;;;;;19.13;7.63;;;8.30;99.90;;;;;;5114771;28;20039;-65
2022/04/06 04:51:29;;;;;;;19.75;7.55;;;8.30;99.90;;;;;;5097051;28;20127;-63
2022/04/06 04:53:57;;;;;;;16.95;7.30;;;8.30;99.90;;;;;;5114150;28;20040;-63
2022/04/06 04:56:25;;;;;;;19.90;6.82;;;8.30;99.90;;;;;;5096902;28;20048;-65
2022/04/06 04:58:51;;;;;;;16.35;7.20;;;8.30;99.90;;;;;;5114501;28;20087;-63
2022/04/06 05:01:17;;;;;;;21.45;7.88;;;8.30;99.90;;;;;;5114716;28;20511;-63
2022/04/06 05:03:43;;;;;;;24.63;7.53;;;8.30;99.90;;;;;;5114512;28;20044;-64
2022/04/06 05:06:09;;;;;;;13.30;4.95;;;8.30;99.90;;;;;;5114874;28;20088;-64
2022/04/06 05:08:35;;;;;;;20.30;7.05;;;8.30;99.90;;;;;;5096542;28;20127;-64
2022/04/06 05:11:00;;;;;;;18.38;7.90;;;8.30;99.90;;;;;;5114412;28;20047;-65
2022/04/06 05:13:26;;;;;;;16.30;7.55;;;8.30;99.90;;;;;;5096230;28;20396;-66
2022/04/06 05:15:52;;;;;;;20.92;7.50;;;8.40;99.90;;;;;;5095968;28;20103;-64
2022/04/06 05:18:18;;;;;;;19.40;7.05;;;8.30;99.90;;;;;;5114527;28;20512;-63
2022/04/06 05:20:44;;;;;;;16.25;6.53;;;8.30;99.90;;;;;;5114212;28;20039;-63
2022/04/06 05:23:10;;;;;;;18.05;7.45;;;8.30;99.90;;;;;;5114216;28;20381;-64
2022/04/06 05:25:36;;;;;;;15.35;5.90;;;8.30;99.90;;;;;;5095696;28;20066;-63
2022/04/06 05:28:02;;;;;;;24.45;6.68;;;8.30;99.90;;;;;;5113890;28;20047;-63
2022/04/06 05:30:29;;;;;;;19.23;7.40;;;8.30;99.90;;;;;;5114198;28;20120;-65
2022/04/06 05:32:56;;;;;;;17.90;6.13;;;8.20;99.90;;;;;;5079027;28;20454;-65
2022/04/06 05:35:24;;;;;;;13.45;5.85;;;8.30;99.90;;;;;;5114109;28;20126;-64
2022/04/06 05:37:50;;;;;;;15.15;6.45;;;8.20;99.90;;;;;;5113551;28;20437;-67
2022/04/06 05:40:19;;;;;;;15.50;6.97;;;8.20;99.90;;;;;;5095806;28;20058;-64
2022/04/06 05:42:45;;;;;;;21.52;6.50;;;8.20;99.90;;;;;;5113579;28;20051;-69
2022/04/06 05:45:10;;;;;;;20.90;6.80;;;8.20;99.90;;;;;;5095468;28;20089;-63
2022/04/06 05:47:37;;;;;;;13.80;5.20;;;8.20;99.90;;;;;;5113565;28;20052;-64
2022/04/06 05:50:05;;;;;;;19.05;6.25;;;8.20;99.90;;;;;;5113343;28;20040;-64
2022/04/06 05:52:31;;;;;;;19.13;5.88;;;8.20;99.90;;;;;;5095310;28;20043;-64
2022/04/06 05:54:57;;;;;;;21.23;6.80;;;8.20;99.90;;;;;;5094998;28;20465;-63
2022/04/06 05:57:23;;;;;;;19.40;6.40;;;8.20;99.90;;;;;;5062154;28;20052;-70
2022/04/06 05:59:49;;;;;;;17.67;6.55;;;8.20;99.90;;;;;;5095271;28;20161;-63
2022/04/06 06:02:15;;;;;;;14.38;6.30;;;8.10;99.90;;;;;;5095846;28;20040;-62
2022/04/06 06:04:41;;;;;;;28.15;7.20;;;8.10;99.90;;;;;;5113780;28;20428;-63
2022/04/06 06:07:07;;;;;;;16.83;6.40;;;8.10;99.90;;;;;;5113166;28;20039;-66
2022/04/06 06:09:34;;;;;;;22.25;7.05;;;8.10;99.90;;;;;;5113295;28;20039;-63
2022/04/06 06:12:01;;;;;;;14.07;7.03;;;8.00;99.90;;;;;;5113023;28;20039;-68
2022/04/06 06:14:27;;;;;;;15.85;6.55;;;8.10;99.90;;;;;;5078359;28;20172;-64
2022/04/06 06:16:53;;;;;;;17.80;7.00;;;8.10;99.90;;;;;;5112549;28;20104;-64
2022/04/06 06:19:19;;;;;;;15.68;7.00;;;8.10;99.90;;;;;;5078167;28;20052;-64
2022/04/06 06:21:45;;;;;;;19.83;7.78;;;8.10;99.90;;;;;;5113252;28;20043;-64
2022/04/06 06:24:11;;;;;;;18.88;7.75;;;8.10;99.90;;;;;;5094764;28;20493;-67
2022/04/06 06:26:38;;;;;;;12.05;6.68;;;8.10;99.90;;;;;;5113226;28;20063;-68
2022/04/06 06:29:04;;;;;;;13.77;6.75;;;8.10;99.90;;;;;;5094585;28;20400;-63
2022/04/06 06:31:31;;;;;;;12.52;6.07;;;8.10;99.90;;;;;;5095021;28;20123;-66
2022/04/06 06:33:58;;;;;;;15.18;6.00;;;8.10;99.90;;;;;;5112405;28;20035;-63
2022/04/06 06:36:25;;;;;;;14.20;5.72;;;8.10;99.90;;;;;;5094935;28;20050;-63
2022/04/06 06:38:54;;;;;;;13.65;6.32;;;8.10;99.90;;;;;;5094013;28;20052;-70
2022/04/06 06:41:21;;;;;;;15.43;5.60;;;8.10;99.90;;;;;;5112555;28;20055;-66
2022/04/06 06:43:48;;;;;;;12.98;5.68;;;8.10;99.90;;;;;;5077313;28;20519;-64
2022/04/06 06:46:18;;;;;;;12.68;5.30;;;8.10;99.90;;;;;;5112110;28;20073;-62
2022/04/06 06:48:44;;;;;;;11.40;5.53;;;8.20;99.90;;;;;;5112233;28;20106;-62
2022/04/06 06:51:10;;;;;;;18.40;5.45;;;8.10;99.90;;;;;;5111868;28;20652;-62
2022/04/06 06:53:36;;;;;;;15.38;5.65;;;8.10;99.90;;;;;;5112534;28;20054;-62
2022/04/06 06:56:02;;;;;;;14.18;5.15;;;8.10;99.90;;;;;;5110503;28;20055;-64
2022/04/06 06:58:27;;;;;;;10.70;4.88;;;8.10;99.90;;;;;;5112330;28;20139;-63
2022/04/06 07:00:53;;;;;;;17.50;5.57;;;8.10;99.90;;;;;;5093588;28;20396;-73
2022/04/06 07:03:19;;;;;;;14.77;6.45;;;7.90;99.90;;;;;;5111442;28;20051;-64
2022/04/06 07:05:45;;;;;;;12.20;5.65;;;8.10;99.90;;;;;;5094064;28;20035;-65
2022/04/06 07:08:11;;;;;;;10.05;4.43;;;8.10;99.90;;;;;;5111776;28;20427;-67
2022/04/06 07:10:36;;;;;;;15.57;5.03;;;8.10;99.90;;;;;;5112047;28;20498;-63
2022/04/06 07:13:02;;;;;;;12.07;5.00;;;8.10;99.90;;;;;;5111300;28;20472;-64
2022/04/06 07:15:28;;;;;;;12.63;4.50;;;8.10;99.90;;;;;;5093919;28;20431;-62
2022/04/06 07:17:56;;;;;;;11.07;4.32;;;8.10;99.90;;;;;;5093591;28;20089;-74
2022/04/06 07:20:26;;;;;;;9.55;3.92;;;8.10;99.90;;;;;;5112000;28;20050;-64
2022/04/06 07:22:52;;;;;;;9.50;3.60;;;8.10;99.90;;;;;;5094917;28;20122;-65
2022/04/06 07:25:19;;;;;;;13.02;4.20;;;8.10;99.90;;;;;;5092880;28;20134;-64
2022/04/06 07:27:44;;;;;;;11.93;3.72;;;8.10;99.90;;;;;;5112122;28;20051;-63
2022/04/06 07:30:12;;;;;;;11.68;3.90;;;8.10;99.90;;;;;;5093233;28;20373;-68
2022/04/06 07:32:38;;;;;;;17.40;3.97;;;8.10;99.90;;;;;;5111962;28;20044;-63
2022/04/06 07:35:06;;;;;;;10.90;4.22;;;8.10;99.90;;;;;;5111477;28;20434;-63
2022/04/06 07:37:42;;;;;;;8.52;3.63;;;8.10;99.90;;;;;;5111810;28;20039;-66
2022/04/06 07:40:10;;;;;;;13.00;3.65;;;8.10;99.90;;;;;;5111365;28;20065;-64
2022/04/06 07:42:38;;;;;;;12.13;3.92;;;8.10;99.90;;;;;;5093497;28;20527;-63
2022/04/06 07:45:06;;;;;;;14.95;4.28;;;8.10;99.90;;;;;;5111338;28;20366;-64
2022/04/06 07:47:33;;;;;;;13.65;4.10;;;8.10;99.90;;;;;;5111442;28;20051;-64
2022/04/06 07:50:01;;;;;;;9.60;3.30;;;8.20;99.90;;;;;;5111085;28;20051;-77
2022/04/06 07:52:29;;;;;;;9.30;3.38;;;8.20;99.90;;;;;;5110749;28;20113;-62
2022/04/06 07:54:55;;;;;;;8.65;3.20;;;8.20;99.90;;;;;;5111379;28;20043;-66
2022/04/06 07:57:21;;;;;;;10.45;3.97;;;8.20;99.90;;;;;;5111337;28;20594;-63
2022/04/06 07:59:47;;;;;;;14.13;4.32;;;8.20;99.90;;;;;;5093241;28;20054;-65
2022/04/06 08:02:12;;;;;;;7.45;3.42;;;8.20;99.90;;;;;;5091824;28;20044;-62
2022/04/06 08:04:41;;;;;;;12.82;4.68;;;8.20;99.90;;;;;;5093350;28;20089;-64
2022/04/06 08:07:07;;;;;;;8.13;3.70;;;8.20;99.90;;;;;;5110413;28;20051;-74
2022/04/06 08:09:33;;;;;;;12.43;3.80;;;8.30;99.90;;;;;;5109890;28;20139;-67
2022/04/06 08:12:01;;;;;;;15.13;4.28;;;8.30;99.90;;;;;;5075605;28;20047;-63
2022/04/06 08:14:30;;;;;;;13.95;4.40;;;8.30;99.90;;;;;;5110311;28;20044;-68
2022/04/06 08:16:57;;;;;;;8.63;3.10;;;8.20;99.90;;;;;;5114303;28;20480;-63
2022/04/06 08:19:24;;;;;;;12.85;4.50;;;8.20;99.90;;;;;;5096056;28;20642;-67
2022/04/06 08:21:50;;;;;;;9.57;3.65;;;8.30;99.90;;;;;;5114304;28;20195;-68
2022/04/06 08:24:16;;;;;;;9.88;3.95;;;8.20;99.90;;;;;;5096134;28;20131;-63
2022/04/06 08:26:42;;;;;;;13.35;3.95;;;8.20;99.90;;;;;;5114375;28;20139;-63
2022/04/06 08:29:08;;;;;;;12.90;4.13;;;8.20;99.90;;;;;;5114026;28;20048;-63
2022/04/06 08:31:34;;;;;;;11.98;3.70;;;8.20;99.90;;;;;;5096299;28;20043;-65
2022/04/06 08:34:00;;;;;;;12.18;3.65;;;8.30;99.90;;;;;;5114177;28;20126;-65
2022/04/06 08:36:26;;;;;;;9.07;3.42;;;8.30;99.90;;;;;;5114039;28;20062;-65
2022/04/06 08:38:51;;;;;;;10.75;3.45;;;8.30;99.90;;;;;;5096333;28;20051;-67
2022/04/06 08:41:24;;;;;;;11.98;4.88;;;8.30;99.90;;;;;;5114056;28;20055;-64
2022/04/06 08:43:50;;;;;;;9.65;3.47;;;8.40;99.90;;;;;;5114154;28;20047;-64
2022/04/06 08:46:17;;;;;;;10.73;4.55;;;8.40;99.90;;;;;;5113499;28;20088;-63
2022/04/06 08:48:47;;;;;;;9.40;3.90;;;8.40;99.90;;;;;;5113771;28;20048;-65
2022/04/06 08:51:15;;;;;;;10.32;3.85;;;8.40;99.90;;;;;;5095571;28;20508;-66
2022/04/06 08:53:42;;;;;;;12.77;3.97;;;8.40;99.90;;;;;;5095857;28;20070;-67
2022/04/06 08:56:09;;;;;;;16.52;5.13;;;8.50;99.90;;;;;;5113502;28;20051;-72
2022/04/06 08:58:35;;;;;;;9.20;3.28;;;8.60;99.90;;;;;;5095827;28;20152;-68
2022/04/06 09:01:01;;;;;;;12.85;3.78;;;8.70;99.90;;;;;;5114178;28;20052;-65
2022/04/06 09:03:26;;;;;;;7.78;3.10;;;8.70;99.90;;;;;;5113672;28;20055;-65
2022/04/06 09:06:10;;;;;;;13.05;3.17;;;8.70;99.90;;;;;;5095910;28;20052;-64
2022/04/06 09:08:45;;;;;;;9.95;3.67;;;8.80;99.90;;;;;;5114444;28;20050;-65
2022/04/06 09:11:15;;;;;;;9.45;3.85;;;8.80;99.90;;;;;;5113872;28;20047;-74
2022/04/06 09:13:46;;;;;;;14.15;3.22;;;8.80;99.90;;;;;;5113494;28;20084;-65
2022/04/06 09:16:13;;;;;;;11.45;3.90;;;8.80;99.90;;;;;;5114028;28;20053;-74
2022/04/06 09:18:43;;;;;;;8.30;3.40;;;8.80;99.90;;;;;;5114526;28;20051;-64
2022/04/06 09:21:14;;;;;;;11.57;3.60;;;8.80;99.90;;;;;;5114321;28;20050;-65
2022/04/06 09:23:40;;;;;;;14.23;4.00;;;8.90;99.90;;;;;;5114001;28;20073;-65
2022/04/06 09:26:11;;;;;;;9.52;3.40;;;8.90;99.90;;;;;;5112687;28;20048;-65
2022/04/06 09:28:41;;;;;;;12.18;3.28;;;9.00;99.90;;;;;;5095160;28;20078;-66
2022/04/06 09:31:08;;;;;;;18.63;4.05;;;9.10;99.90;;;;;;5096086;28;20047;-63
2022/04/06 09:33:39;;;;;;;13.48;3.88;;;9.30;99.90;;;;;;5095353;28;20043;-63
2022/04/06 09:36:19;;;;;;;16.83;4.35;;;9.30;99.90;;;;;;5079257;28;20059;-63
2022/04/06 09:38:48;;;;;;;13.23;4.40;;;9.40;99.90;;;;;;5114004;28;20501;-64
2022/04/06 09:41:15;;;;;;;15.23;3.53;;;9.50;99.90;;;;;;5095873;28;20061;-64
2022/04/06 09:43:44;;;;;;;9.02;3.63;;;9.50;99.90;;;;;;5113631;28;20112;-65
2022/04/06 09:49:14;;;;;;;18.15;4.13;;;9.70;99.90;;;;;;5113619;28;20087;-63
2022/04/06 09:51:44;;;;;;;17.77;4.13;;;9.70;99.90;;;;;;5078068;28;20043;-63
2022/04/06 09:54:12;;;;;;;8.50;3.67;;;9.70;99.90;;;;;;5113569;28;20120;-66
2022/04/06 09:56:39;;;;;;;13.77;4.00;;;9.80;99.90;;;;;;5094938;28;20054;-63
2022/04/06 09:59:06;;;;;;;13.70;3.83;;;9.80;99.90;;;;;;5112965;28;20043;-63
2022/04/06 10:01:34;;;;;;;10.75;3.83;;;9.80;99.90;;;;;;5113176;28;20066;-64
2022/04/06 10:04:09;;;;;;;13.23;4.03;;;9.70;99.90;;;;;;5095331;28;20103;-68
2022/04/06 10:06:37;;;;;;;11.25;3.92;;;9.70;99.90;;;;;;5113154;28;20043;-63
2022/04/06 10:09:06;;;;;;;11.27;3.72;;;9.70;99.90;;;;;;5095249;28;20036;-63
2022/04/06 10:11:36;;;;;;;11.00;3.70;;;9.70;99.90;;;;;;5094657;28;20112;-64
2022/04/06 10:14:04;;;;;;;11.63;3.92;;;9.70;99.90;;;;;;5094847;28;20040;-64
2022/04/06 10:16:31;;;;;;;16.45;3.65;;;9.70;99.90;;;;;;5112656;28;20078;-63
2022/04/06 10:18:58;;;;;;;14.23;3.75;;;9.70;99.90;;;;;;5113124;28;20078;-64
2022/04/06 10:21:45;;;;;;;13.05;4.97;;;9.70;99.90;;;;;;5094655;28;20381;-64
2022/04/06 10:24:33;;;;;;;15.20;4.00;;;9.70;99.90;;;;;;5113184;28;20180;-63
2022/04/06 10:27:23;;;;;;;14.43;4.45;;;9.70;99.90;;;;;;5112830;28;20048;-63
2022/04/06 10:30:16;;;;;;;14.10;4.40;;;9.70;99.90;;;;;;5111609;28;20044;-72
2022/04/06 10:32:47;;;;;;;14.50;4.10;;;9.60;99.90;;;;;;5111541;28;20675;-63
2022/04/06 10:35:34;;;;;;;11.63;4.03;;;9.70;99.90;;;;;;5112445;28;20147;-63
2022/04/06 10:38:02;;;;;;;13.80;3.47;;;9.70;99.90;;;;;;5093750;28;20059;-69
2022/04/06 10:40:53;;;;;;;11.68;3.72;;;9.70;99.90;;;;;;5111396;28;20051;-63
2022/04/06 10:43:35;;;;;;;16.92;4.63;;;9.70;99.90;;;;;;5098617;28;20189;-64
2022/04/06 10:46:01;;;;;;;15.77;4.78;;;9.80;99.90;;;;;;5112698;28;20152;-65
2022/04/06 10:48:27;;;;;;;20.88;4.93;;;9.70;99.90;;;;;;5112125;28;20047;-64
2022/04/06 10:51:13;;;;;;;18.35;5.88;;;9.80;99.90;;;;;;5087197;28;20465;-64
2022/04/06 10:53:38;;;;;;;16.90;5.20;;;9.70;99.90;;;;;;5092188;28;20126;-67
2022/04/06 10:56:07;;;;;;;13.60;4.85;;;9.80;99.90;;;;;;5091939;28;20236;-68
2022/04/06 10:58:57;;;;;;;15.25;5.03;;;9.80;99.90;;;;;;5110550;28;20043;-67
2022/04/06 11:01:30;;;;;;;17.48;5.35;;;9.70;99.90;;;;;;5092931;28;20047;-67
2022/04/06 11:04:04;;;;;;;13.95;4.47;;;9.70;99.90;;;;;;5092995;28;20100;-64
2022/04/06 11:06:48;;;;;;;20.05;5.05;;;9.70;99.90;;;;;;5075267;28;20051;-65
2022/04/06 11:12:28;;;;;;;17.00;5.25;;;9.70;99.90;;;;;;5111909;28;20497;-66
2022/04/06 11:14:59;;;;;;;21.45;5.68;;;9.70;99.90;;;;;;5111039;28;20047;-69
2022/04/06 11:17:34;;;;;;;13.68;4.97;;;9.80;99.90;;;;;;5112015;28;20043;-65
2022/04/06 11:20:03;;;;;;;12.05;4.10;;;9.80;99.90;;;;;;5112201;28;20047;-66
2022/04/06 11:22:29;;;;;;;15.00;4.85;;;9.80;99.90;;;;;;5112026;28;20044;-76
2022/04/06 11:24:55;;;;;;;13.68;3.90;;;9.80;99.90;;;;;;5111412;28;20062;-62
2022/04/06 11:27:31;;;;;;;13.10;5.43;;;9.80;99.90;;;;;;5111964;28;20059;-64
2022/04/06 11:30:12;;;;;;;14.50;4.57;;;9.80;99.90;;;;;;5076664;28;20661;-63
2022/04/06 11:32:39;;;;;;;18.08;4.75;;;9.80;99.90;;;;;;5111332;28;20051;-67
2022/04/06 11:35:10;;;;;;;16.00;4.90;;;9.80;99.90;;;;;;5093673;28;20043;-64
2022/04/06 11:37:43;;;;;;;16.15;4.72;;;9.90;99.90;;;;;;5111257;28;20492;-64
2022/04/06 11:40:10;;;;;;;14.82;5.07;;;9.90;99.90;;;;;;5093640;28;20041;-66
2022/04/06 11:42:37;;;;;;;18.70;5.07;;;10.00;99.90;;;;;;5092753;28;20044;-67
2022/04/06 11:45:03;;;;;;;22.63;6.03;;;10.10;99.90;;;;;;5111581;28;20086;-64
2022/04/06 11:47:35;;;;;;;17.20;5.18;;;10.20;99.90;;;;;;5111519;28;20036;-63
2022/04/06 11:50:09;;;;;;;17.70;4.85;;;10.30;99.90;;;;;;5110600;28;20083;-64
2022/04/06 11:52:36;;;;;;;17.75;4.28;;;10.40;99.90;;;;;;5111039;28;20052;-70
2022/04/06 11:55:02;;;;;;;16.90;5.10;;;10.60;99.90;;;;;;5093024;28;20039;-66
2022/04/06 11:57:35;;;;;;;15.07;4.32;;;10.70;99.90;;;;;;5111856;28;20527;-65
2022/04/06 12:00:08;;;;;;;18.80;4.38;;;10.80;99.90;;;;;;5093921;28;20039;-63
2022/04/06 12:02:55;;;;;;;14.95;3.90;;;11.00;99.90;;;;;;5077782;28;20055;-73
2022/04/06 12:05:22;;;;;;;20.83;5.45;;;11.10;99.90;;;;;;5111664;28;20063;-62
2022/04/06 12:08:04;;;;;;;15.25;4.30;;;11.10;99.90;;;;;;5111189;28;20055;-63
2022/04/06 12:10:30;;;;;;;14.05;4.07;;;11.30;99.90;;;;;;5093121;28;20105;-64
2022/04/06 12:12:56;;;;;;;16.88;4.00;;;11.40;99.90;;;;;;5110669;28;20527;-64
2022/04/06 12:15:22;;;;;;;19.85;3.67;;;11.40;99.90;;;;;;5092787;28;20477;-64
2022/04/06 12:17:48;;;;;;;10.60;3.55;;;11.40;99.90;;;;;;5092746;28;20043;-65
2022/04/06 12:20:28;;;;;;;12.23;3.38;;;11.50;99.90;;;;;;5053444;28;20071;-66
2022/04/06 12:23:01;;;;;;;13.73;3.53;;;11.40;99.90;;;;;;5091678;28;20047;-71
2022/04/06 12:25:29;;;;;;;12.25;3.25;;;11.40;99.90;;;;;;5109086;28;20116;-64
2022/04/06 12:28:21;;;;;;;10.90;3.00;;;11.40;99.90;;;;;;5108640;28;20059;-66
2022/04/06 12:31:00;;;;;;;13.75;3.55;;;11.50;99.90;;;;;;5075734;28;20051;-63
2022/04/06 12:33:42;;;;;;;13.48;3.30;;;11.50;99.90;;;;;;5092547;28;20051;-66
2022/04/06 12:36:08;;;;;;;13.32;3.20;;;11.40;99.90;;;;;;5092874;28;20055;-64
2022/04/06 12:38:34;;;;;;;14.73;4.13;;;11.40;99.90;;;;;;5110930;28;20051;-63
2022/04/06 12:41:13;;;;;;;11.68;3.67;;;11.50;99.90;;;;;;5106610;28;20693;-66
2022/04/06 12:43:45;;;;;;;11.85;3.15;;;11.60;99.90;;;;;;5108084;28;20125;-76
2022/04/06 12:46:12;;;;;;;14.55;3.85;;;11.70;99.90;;;;;;5108984;28;20081;-67
2022/04/06 12:48:38;;;;;;;17.50;4.32;;;11.70;99.90;;;;;;5091182;28;20044;-68
2022/04/06 12:51:21;;;;;;;13.60;3.75;;;11.70;99.90;;;;;;5109475;28;20089;-66
2022/04/06 12:53:51;;;;;;;11.18;3.25;;;11.70;99.90;;;;;;5109327;28;20373;-65
2022/04/06 12:56:24;;;;;;;15.20;3.90;;;11.70;99.90;;;;;;5110422;28;20119;-65
2022/04/06 12:59:08;;;;;;;12.93;3.17;;;11.70;99.90;;;;;;5075937;28;20046;-64
2022/04/06 13:01:42;;;;;;;12.85;3.08;;;11.60;99.90;;;;;;5110406;28;20489;-65